Time;durP1;ratioP1;P1;durP2;ratioP2;P2;SDS_P1;SDS_P2;PMS_P1;PMS_P2;Temp;Humidity;BMP_temperature;BMP_pressure;BME280_temperature;BME280_humidity;BME280_pressure;Samples;Min_cycle;Max_cycle;Signal;HPM_P1;HPM_P2
2022/09/05 00:02:49;;;;;;;26.60;23.90;;;;;;;14.19;100.00;99751.06;103184;1294;73740;-74
2022/09/05 00:05:53;;;;;;;27.40;24.70;;;;;;;14.19;100.00;99757.48;103176;1292;70192;-72
2022/09/05 00:08:46;;;;;;;26.10;23.40;;;;;;;14.18;100.00;99756.10;103145;1294;72531;-74
2022/09/05 00:11:51;;;;;;;26.50;23.90;;;;;;;14.18;100.00;99760.84;103150;1293;61307;-71
2022/09/05 00:14:50;;;;;;;25.90;23.40;;;;;;;14.15;100.00;99759.76;103200;1293;61884;-73
2022/09/05 00:18:02;;;;;;;26.30;23.70;;;;;;;14.12;100.00;99757.27;102894;1293;73487;-73
2022/09/05 00:20:53;;;;;;;26.40;23.70;;;;;;;14.10;100.00;99752.11;103935;1281;70209;-73
2022/09/05 00:23:55;;;;;;;25.30;22.70;;;;;;;14.06;100.00;99748.55;104422;1279;71379;-72
2022/09/05 00:27:01;;;;;;;27.00;23.70;;;;;;;14.02;100.00;99745.81;104406;1271;61405;-72
2022/09/05 00:30:11;;;;;;;29.40;26.40;;;;;;;13.99;100.00;99745.81;105076;1270;61185;-73
2022/09/05 00:33:04;;;;;;;28.50;25.70;;;;;;;13.98;100.00;99743.95;105066;1270;76215;-73
2022/09/05 00:36:26;;;;;;;29.20;24.50;;;;;;;13.97;100.00;99739.02;105060;1270;70322;-72
2022/09/05 00:39:19;;;;;;;26.30;23.70;;;;;;;13.96;100.00;99737.46;104992;1270;74147;-72
2022/09/05 00:42:09;;;;;;;25.90;23.30;;;;;;;13.95;100.00;99735.23;105042;1270;61381;-72
2022/09/05 00:44:59;;;;;;;24.20;21.60;;;;;;;13.92;100.00;99737.91;105077;1270;61354;-72
2022/09/05 00:48:02;;;;;;;23.90;21.60;;;;;;;13.89;100.00;99741.57;105065;1270;77537;-73
2022/09/05 00:50:55;;;;;;;23.90;21.40;;;;;;;13.82;100.00;99744.83;105107;1270;68650;-72
2022/09/05 00:54:29;;;;;;;24.40;22.10;;;;;;;13.75;100.00;99740.71;105055;1270;74195;-73
2022/09/05 00:57:32;;;;;;;22.40;20.20;;;;;;;13.64;100.00;99745.17;104433;1277;61388;-72
2022/09/05 01:00:17;;;;;;;24.00;21.80;;;;;;;13.53;100.00;99741.64;104508;1278;61902;-73
2022/09/05 01:03:23;;;;;;;24.20;21.80;;;;;;;13.46;100.00;99741.61;104482;1277;76130;-73
2022/09/05 01:06:10;;;;;;;23.40;21.20;;;;;;;13.39;100.00;99742.77;104408;1278;70110;-73
2022/09/05 01:09:33;;;;;;;22.60;20.50;;;;;;;13.32;100.00;99741.64;104453;1277;72804;-72
2022/09/05 01:12:26;;;;;;;31.30;28.60;;;;;;;13.23;100.00;99746.14;104360;1277;61336;-72
2022/09/05 01:15:21;;;;;;;37.70;34.60;;;;;;;13.14;100.00;99748.09;104481;1278;61162;-72
2022/09/05 01:18:37;;;;;;;25.40;23.10;;;;;;;13.09;100.00;99749.52;104520;1277;73315;-72
2022/09/05 01:21:40;;;;;;;25.20;22.80;;;;;;;13.04;100.00;99747.55;104463;1277;70248;-73
2022/09/05 01:24:26;;;;;;;23.80;21.40;;;;;;;13.01;100.00;99742.05;104424;1277;73810;-73
2022/09/05 01:27:48;;;;;;;25.00;22.60;;;;;;;12.98;100.00;99742.92;104449;1277;61322;-72
2022/09/05 01:30:49;;;;;;;24.70;22.20;;;;;;;12.94;100.00;99744.56;104451;1278;61234;-72
2022/09/05 01:33:46;;;;;;;23.90;21.50;;;;;;;12.91;100.00;99746.43;104454;1271;75246;-74
2022/09/05 01:37:06;;;;;;;22.20;20.00;;;;;;;12.86;100.00;99750.66;105098;1270;67467;-73
2022/09/05 01:40:03;;;;;;;21.80;19.70;;;;;;;12.78;100.00;99749.20;104780;1277;71709;-73
2022/09/05 01:43:13;;;;;;;22.80;20.60;;;;;;;12.71;100.00;99753.40;104751;1277;61400;-73
2022/09/05 01:45:57;;;;;;;;;;;;;;;12.63;100.00;99752.86;104772;1277;61799;-73
2022/09/05 01:48:52;;;;;;;25.30;22.80;;;;;;;12.55;100.00;99756.19;104779;1277;73496;-73
2022/09/05 01:52:10;;;;;;;23.30;21.00;;;;;;;12.50;100.00;99755.77;104799;1277;70148;-73
2022/09/05 01:55:03;;;;;;;24.70;22.30;;;;;;;12.46;100.00;99749.27;104775;1277;74118;-73
2022/09/05 01:58:04;;;;;;;25.40;22.80;;;;;;;12.44;100.00;99751.91;104765;1277;61538;-73
2022/09/05 02:00:59;;;;;;;25.80;23.50;;;;;;;12.43;100.00;99748.21;104762;1277;61828;-73
2022/09/05 02:03:58;;;;;;;25.60;23.10;;;;;;;12.44;100.00;99748.53;104803;1277;76151;-72
2022/09/05 02:07:02;;;;;;;23.70;21.30;;;;;;;12.45;100.00;99747.89;104737;1277;70100;-73
2022/09/05 02:10:05;;;;;;;25.50;23.10;;;;;;;12.45;100.00;99747.91;104769;1277;71504;-73
2022/09/05 02:13:12;;;;;;;26.10;23.50;;;;;;;12.42;100.00;99744.15;104766;1277;61432;-73
2022/09/05 02:16:24;;;;;;;27.30;24.60;;;;;;;12.39;100.00;99747.05;104531;1278;61201;-74
2022/09/05 02:19:08;;;;;;;25.50;22.90;;;;;;;12.33;100.00;99745.27;104904;1273;73781;-74
2022/09/05 02:22:27;;;;;;;23.90;21.60;;;;;;;12.29;100.00;99745.31;105102;1270;68402;-73
2022/09/05 02:25:23;;;;;;;25.40;22.50;;;;;;;12.26;100.00;99751.38;105068;1270;74160;-72
2022/09/05 02:28:40;;;;;;;25.30;22.60;;;;;;;12.25;100.00;99750.95;105039;1270;61387;-72
2022/09/05 02:31:42;;;;;;;24.10;21.70;;;;;;;12.24;100.00;99747.98;104467;1278;61950;-72
2022/09/05 02:34:39;;;;;;;24.30;22.00;;;;;;;12.24;100.00;99749.21;104464;1277;76166;-72
2022/09/05 02:37:35;;;;;;;25.10;22.60;;;;;;;12.25;100.00;99750.55;104469;1278;67413;-72
2022/09/05 02:40:22;;;;;;;23.50;21.30;;;;;;;12.26;100.00;99750.51;104489;1277;72593;-72
2022/09/05 02:43:26;;;;;;;24.30;22.00;;;;;;;12.26;100.00;99750.68;104460;1277;61308;-72
2022/09/05 02:46:34;;;;;;;24.40;22.10;;;;;;;12.27;100.00;99754.39;104571;1277;62262;-71
2022/09/05 02:49:42;;;;;;;23.60;21.40;;;;;;;12.28;100.00;99760.89;104492;1277;76181;-72
2022/09/05 02:52:30;;;;;;;23.00;20.90;;;;;;;12.25;100.00;99760.90;104458;1278;70061;-72
2022/09/05 02:55:26;;;;;;;22.00;19.80;;;;;;;12.23;100.00;99761.61;104414;1278;74252;-73
2022/09/05 02:58:36;;;;;;;22.70;20.60;;;;;;;12.19;100.00;99765.02;104457;1278;61596;-73
2022/09/05 03:01:35;;;;;;;22.80;20.60;;;;;;;12.17;100.00;99765.15;104457;1277;61789;-72
2022/09/05 03:04:28;;;;;;;21.70;19.70;;;;;;;12.14;100.00;99762.14;104549;1277;75287;-72
2022/09/05 03:07:51;;;;;;;22.50;19.90;;;;;;;12.12;100.00;99763.50;104627;1277;67648;-72
2022/09/05 03:10:41;;;;;;;21.50;19.50;;;;;;;12.09;100.00;99764.20;105026;1270;71179;-72
2022/09/05 03:13:32;;;;;;;21.80;19.80;;;;;;;12.08;100.00;99763.02;105090;1270;61239;-72
2022/09/05 03:16:28;;;;;;;20.80;18.80;;;;;;;12.07;100.00;99765.16;105214;1270;61757;-71
2022/09/05 03:19:37;;;;;;;20.40;18.40;;;;;;;12.06;100.00;99768.31;105219;1270;75419;-72
2022/09/05 03:22:41;;;;;;;20.80;18.70;;;;;;;12.04;100.00;99771.79;105240;1270;70189;-72
2022/09/05 03:25:48;;;;;;;21.40;19.40;;;;;;;12.02;100.00;99773.35;105100;1270;71539;-72
2022/09/05 03:28:54;;;;;;;22.00;19.20;;;;;;;11.99;100.00;99770.89;105098;1270;61166;-73
2022/09/05 03:31:44;;;;;;;20.30;18.50;;;;;;;11.96;100.00;99771.77;105067;1270;61759;-73
2022/09/05 03:34:54;;;;;;;20.80;18.90;;;;;;;11.92;100.00;99772.70;105108;1270;76216;-72
2022/09/05 03:38:26;;;;;;;19.00;17.40;;;;;;;11.88;100.00;99774.41;104967;1270;66950;-72
2022/09/05 03:41:30;;;;;;;18.50;16.70;;;;;;;11.82;100.00;99776.12;104490;1277;73714;-72
2022/09/05 03:44:41;;;;;;;20.30;18.40;;;;;;;11.78;100.00;99781.54;104437;1277;61358;-72
2022/09/05 03:47:57;;;;;;;20.30;18.50;;;;;;;11.75;100.00;99780.44;104442;1277;61893;-71
2022/09/05 03:50:54;;;;;;;24.00;21.30;;;;;;;11.73;100.00;99787.31;104453;1277;76214;-72
2022/09/05 03:54:17;;;;;;;21.80;19.80;;;;;;;11.73;100.00;99787.20;104456;1277;71637;-72
2022/09/05 03:57:01;;;;;;;23.00;20.90;;;;;;;11.72;100.00;99791.50;104454;1277;74216;-71
2022/09/05 04:00:19;;;;;;;20.30;18.40;;;;;;;11.71;100.00;99792.27;104542;1277;61452;-72
2022/09/05 04:03:12;;;;;;;19.40;17.60;;;;;;;11.67;100.00;99796.58;104534;1277;61376;-72
2022/09/05 04:06:10;;;;;;;21.10;19.10;;;;;;;11.64;100.00;99799.23;104606;1278;73511;-72
2022/09/05 04:09:36;;;;;;;20.30;18.30;;;;;;;11.63;100.00;99799.14;104521;1277;70110;-71
2022/09/05 04:12:38;;;;;;;19.50;17.40;;;;;;;11.64;100.00;99799.98;104463;1278;70624;-71
2022/09/05 04:15:54;;;;;;;20.80;18.70;;;;;;;11.66;100.00;99801.80;104449;1277;61407;-74
2022/09/05 04:19:03;;;;;;;17.20;15.70;;;;;;;11.70;100.00;99802.13;104480;1277;61360;-72
2022/09/05 04:21:57;;;;;;;15.70;14.10;;;;;;;11.72;100.00;99805.20;104020;1284;76167;-72
2022/09/05 04:24:51;;;;;;;20.00;18.20;;;;;;;11.77;100.00;99810.79;103850;1284;67525;-72
2022/09/05 04:27:39;;;;;;;21.10;19.10;;;;;;;11.99;100.00;99813.45;104078;1284;74139;-72
2022/09/05 04:30:40;;;;;;;19.80;18.10;;;;;;;12.24;100.00;99817.27;104050;1284;61338;-72
2022/09/05 04:33:37;;;;;;;19.30;17.40;;;;;;;12.34;100.00;99823.80;104069;1284;61360;-74
2022/09/05 04:36:34;;;;;;;17.50;15.80;;;;;;;12.42;100.00;99821.86;103940;1284;73456;-73
2022/09/05 04:39:20;;;;;;;19.70;17.80;;;;;;;12.58;100.00;99830.52;103948;1284;70200;-73
2022/09/05 04:42:05;;;;;;;17.50;16.00;;;;;;;12.58;100.00;99830.69;104092;1284;74151;-74
2022/09/05 04:45:13;;;;;;;18.80;17.00;;;;;;;12.59;100.00;99837.26;104055;1283;61268;-73
2022/09/05 04:48:01;;;;;;;17.80;16.00;;;;;;;12.61;100.00;99834.46;103951;1284;61283;-73
2022/09/05 04:51:07;;;;;;;17.10;15.50;;;;;;;12.66;100.00;99840.51;104054;1284;74458;-73
2022/09/05 04:54:03;;;;;;;17.90;15.70;;;;;;;12.76;100.00;99843.14;103957;1284;68532;-73
2022/09/05 04:56:53;;;;;;;15.00;13.70;;;;;;;12.82;100.00;99849.35;104406;1277;74169;-73
2022/09/05 04:59:59;;;;;;;15.90;14.30;;;;;;;12.87;100.00;99853.86;105003;1269;61441;-74
2022/09/05 05:03:12;;;;;;;15.80;14.40;;;;;;;12.92;100.00;99856.77;105118;1270;61246;-74
2022/09/05 05:06:06;;;;;;;15.30;14.10;;;;;;;13.01;100.00;99860.33;104516;1277;76232;-74
2022/09/05 05:09:24;;;;;;;17.40;15.70;;;;;;;13.08;100.00;99865.56;104529;1277;67385;-73
2022/09/05 05:12:15;;;;;;;20.80;16.40;;;;;;;13.18;100.00;99867.92;104526;1277;74187;-73
2022/09/05 05:15:09;;;;;;;16.80;15.10;;;;;;;13.32;100.00;99865.66;104504;1277;61180;-72
2022/09/05 05:18:16;;;;;;;16.50;15.00;;;;;;;13.43;100.00;99866.91;104505;1277;62261;-73
2022/09/05 05:21:07;;;;;;;18.20;16.30;;;;;;;13.57;100.00;99868.70;104523;1277;76126;-73
2022/09/05 05:23:56;;;;;;;17.40;15.90;;;;;;;13.74;100.00;99871.34;104514;1277;70077;-73
2022/09/05 05:26:55;;;;;;;16.00;14.50;;;;;;;13.97;100.00;99869.64;104500;1277;74061;-73
2022/09/05 05:29:50;;;;;;;13.80;12.50;;;;;;;14.28;100.00;99870.39;104591;1277;61366;-72
2022/09/05 05:32:43;;;;;;;15.20;13.70;;;;;;;14.59;100.00;99869.03;104532;1277;61269;-74
2022/09/05 05:35:30;;;;;;;14.20;13.00;;;;;;;14.70;100.00;99861.04;104505;1277;76191;-73
2022/09/05 05:38:33;;;;;;;14.80;11.50;;;;;;;14.83;100.00;99859.44;104530;1277;71540;-73
2022/09/05 05:41:24;;;;;;;11.30;10.40;;;;;;;14.93;100.00;99865.92;104515;1277;74314;-73
2022/09/05 05:44:18;;;;;;;11.90;10.90;;;;;;;15.01;100.00;99863.56;104895;1271;61293;-73
2022/09/05 05:47:08;;;;;;;12.00;10.50;;;;;;;15.30;100.00;99866.27;105111;1270;61187;-74
2022/09/05 05:49:59;;;;;;;12.10;10.90;;;;;;;15.63;100.00;99868.20;105123;1270;73478;-72
2022/09/05 05:53:03;;;;;;;12.70;11.00;;;;;;;15.58;100.00;99868.33;105095;1270;69183;-74
2022/09/05 05:56:02;;;;;;;9.80;9.00;;;;;;;15.82;100.00;99874.15;104964;1270;74228;-74
2022/09/05 05:58:47;;;;;;;;;;;;;;;16.06;100.00;99872.35;105076;1270;61276;-73
2022/09/05 06:02:03;;;;;;;10.70;9.70;;;;;;;16.31;100.00;99873.31;105129;1270;63444;-73
2022/09/05 06:05:02;;;;;;;11.00;9.90;;;;;;;16.50;100.00;99872.90;105087;1270;73471;-74
2022/09/05 06:08:19;;;;;;;11.60;9.90;;;;;;;16.69;100.00;99877.73;105062;1270;67467;-74
2022/09/05 06:12:07;;;;;;;9.80;8.80;;;;;;;16.82;100.00;99881.39;105062;1270;74176;-73
2022/09/05 06:15:24;;;;;;;10.60;9.70;;;;;;;16.71;100.00;99882.38;104567;1276;61154;-73
2022/09/05 06:18:28;;;;;;;11.00;9.70;;;;;;;16.34;100.00;99880.54;104660;1276;61700;-73
2022/09/05 06:21:31;;;;;;;11.70;10.60;;;;;;;16.19;100.00;99878.67;103450;1276;1600372;-73
2022/09/05 06:24:43;;;;;;;12.10;10.90;;;;;;;16.21;100.00;99883.21;104603;1276;70166;-73
2022/09/05 06:27:46;;;;;;;11.80;10.70;;;;;;;16.24;100.00;99884.38;104602;1276;74062;-74
2022/09/05 06:30:42;;;;;;;11.70;10.50;;;;;;;16.35;100.00;99883.78;104564;1276;62180;-72
2022/09/05 06:33:54;;;;;;;12.20;10.90;;;;;;;16.42;100.00;99880.89;104566;1276;61800;-73
2022/09/05 06:36:47;;;;;;;12.20;10.90;;;;;;;16.38;100.00;99879.79;104587;1276;76120;-74
2022/09/05 06:40:24;;;;;;;13.80;12.60;;;;;;;16.24;100.00;99881.33;104580;1276;70185;-73
2022/09/05 06:43:43;;;;;;;15.10;12.40;;;;;;;16.15;100.00;99885.77;103786;1285;74254;-73
2022/09/05 06:46:33;;;;;;;12.80;11.60;;;;;;;16.17;100.00;99887.82;104329;1277;61217;-74
2022/09/05 06:49:26;;;;;;;12.50;11.40;;;;;;;16.18;100.00;99894.51;104482;1277;61935;-74
2022/09/05 06:52:28;;;;;;;13.00;12.00;;;;;;;16.29;100.00;99896.42;104444;1278;76222;-74
2022/09/05 06:55:20;;;;;;;15.20;13.30;;;;;;;16.31;100.00;99896.48;104486;1277;68509;-74
2022/09/05 06:58:38;;;;;;;13.50;12.10;;;;;;;16.32;100.00;99897.63;104536;1277;74216;-74
2022/09/05 07:01:29;;;;;;;12.60;11.30;;;;;;;16.43;100.00;99899.66;104423;1278;61404;-74
2022/09/05 07:04:32;;;;;;;13.10;11.70;;;;;;;16.52;100.00;99897.35;104360;1278;61504;-74
2022/09/05 07:07:26;;;;;;;13.20;12.00;;;;;;;16.67;100.00;99899.76;104462;1277;73434;-74
2022/09/05 07:10:23;;;;;;;13.20;11.60;;;;;;;16.80;100.00;99900.40;104562;1279;69367;-74
2022/09/05 07:13:20;;;;;;;14.60;11.50;;;;;;;16.91;100.00;99895.22;104391;1279;74223;-72
2022/09/05 07:16:29;;;;;;;11.90;10.40;;;;;;;17.03;100.00;99898.76;104451;1274;61351;-74
2022/09/05 07:19:25;;;;;;;13.10;11.90;;;;;;;17.12;100.00;99900.58;105004;1271;61311;-73
2022/09/05 07:22:37;;;;;;;13.80;11.80;;;;;;;17.15;100.00;99900.84;105034;1271;75142;-74
2022/09/05 07:25:31;;;;;;;12.40;11.20;;;;;;;17.20;100.00;99899.73;105008;1271;67494;-73
2022/09/05 07:28:18;;;;;;;12.60;10.80;;;;;;;17.29;100.00;99901.90;105001;1271;74186;-74
2022/09/05 07:31:18;;;;;;;12.00;10.90;;;;;;;17.32;100.00;99906.48;104935;1271;61330;-74
2022/09/05 07:34:36;;;;;;;11.50;10.50;;;;;;;17.44;100.00;99906.10;104892;1271;61226;-74
2022/09/05 07:37:37;;;;;;;13.20;10.50;;;;;;;17.61;100.00;99908.48;104569;1276;74942;-74
2022/09/05 07:40:23;;;;;;;12.40;11.20;;;;;;;17.69;100.00;99906.18;104579;1276;70940;-73
2022/09/05 07:43:15;;;;;;;11.50;10.40;;;;;;;17.80;100.00;99907.65;104551;1276;73656;-73
2022/09/05 07:45:59;;;;;;;10.60;9.50;;;;;;;17.93;100.00;99905.29;104478;1278;61299;-74
2022/09/05 07:49:03;;;;;;;9.10;8.20;;;;;;;18.05;100.00;99909.55;104595;1276;61816;-73
2022/09/05 07:51:54;;;;;;;7.20;6.60;;;;;;;18.13;100.00;99910.73;104489;1277;74816;-73
2022/09/05 07:54:45;;;;;;;8.10;7.40;;;;;;;18.05;100.00;99915.88;104597;1276;70158;-74
2022/09/05 07:57:40;;;;;;;7.40;6.60;;;;;;;18.11;100.00;99912.84;104582;1277;71429;-74
2022/09/05 08:00:27;;;;;;;5.80;5.40;;;;;;;18.15;100.00;99916.08;104517;1277;61305;-72
2022/09/05 08:03:13;;;;;;;6.80;6.20;;;;;;;18.13;100.00;99912.48;104571;1276;61797;-73
2022/09/05 08:06:04;;;;;;;6.40;5.80;;;;;;;18.16;100.00;99910.93;104552;1277;76318;-72
2022/09/05 08:08:55;;;;;;;6.80;6.20;;;;;;;18.27;100.00;99913.42;104386;1277;70127;-73
2022/09/05 08:11:41;;;;;;;7.60;6.60;;;;;;;18.33;100.00;99912.92;104603;1276;74400;-73
2022/09/05 08:14:56;;;;;;;7.20;6.50;;;;;;;18.37;100.00;99911.49;104930;1271;61408;-73
2022/09/05 08:18:10;;;;;;;8.50;6.70;;;;;;;18.49;100.00;99910.55;104959;1271;61280;-72
2022/09/05 08:21:10;;;;;;;6.90;6.20;;;;;;;18.57;100.00;99912.73;105051;1271;76225;-73
2022/09/05 08:24:11;;;;;;;6.50;5.90;;;;;;;18.67;100.00;99913.13;105099;1270;67396;-73
2022/09/05 08:27:22;;;;;;;6.80;6.20;;;;;;;18.67;100.00;99907.70;105042;1270;74057;-73
2022/09/05 08:30:09;;;;;;;7.10;6.40;;;;;;;18.73;100.00;99900.14;105081;1270;61293;-74
2022/09/05 08:33:13;;;;;;;6.40;5.80;;;;;;;18.83;100.00;99896.44;105105;1270;61297;-73
2022/09/05 08:36:03;;;;;;;6.60;6.00;;;;;;;19.04;100.00;99890.52;105064;1270;73399;-74
2022/09/05 08:38:49;;;;;;;7.30;6.00;;;;;;;19.14;100.00;99891.80;105044;1270;67423;-72
2022/09/05 08:41:56;;;;;;;8.60;6.40;;;;;;;19.11;100.00;99890.46;105008;1270;71508;-73
2022/09/05 08:45:06;;;;;;;6.30;5.70;;;;;;;19.18;100.00;99892.45;105095;1270;61378;-74
2022/09/05 08:48:09;;;;;;;6.80;6.20;;;;;;;19.41;100.00;99890.64;105061;1270;61341;-74
2022/09/05 08:51:23;;;;;;;6.40;5.80;;;;;;;19.48;100.00;99891.94;105048;1270;76171;-78
2022/09/05 08:54:11;;;;;;;7.20;6.60;;;;;;;19.46;100.00;99889.65;104836;1277;70078;-74
2022/09/05 08:57:11;;;;;;;8.10;6.60;;;;;;;19.57;100.00;99888.05;104519;1277;71946;-74
2022/09/05 09:00:07;;;;;;;6.90;6.30;;;;;;;19.68;100.00;99880.82;104775;1277;61323;-73
2022/09/05 09:03:11;;;;;;;8.60;6.10;;;;;;;19.81;100.00;99880.94;104794;1276;61233;-74
2022/09/05 09:06:15;;;;;;;7.30;5.70;;;;;;;19.94;100.00;99879.02;104800;1277;74515;-73
2022/09/05 09:09:22;;;;;;;6.90;6.10;;;;;;;20.06;100.00;99876.86;104944;1277;67572;-73
2022/09/05 09:12:18;;;;;;;7.20;6.50;;;;;;;20.08;100.00;99876.77;104536;1277;74358;-73
2022/09/05 09:15:16;;;;;;;6.60;6.00;;;;;;;20.12;100.00;99878.06;104778;1277;61272;-73
2022/09/05 09:18:16;;;;;;;7.00;6.30;;;;;;;20.21;100.00;99869.48;104774;1277;61587;-73
2022/09/05 09:21:22;;;;;;;6.90;6.00;;;;;;;20.41;100.00;99867.41;104742;1277;73573;-72
2022/09/05 09:24:38;;;;;;;6.80;6.20;;;;;;;20.46;100.00;99874.91;104760;1277;70100;-73
2022/09/05 09:27:41;;;;;;;6.50;5.20;;;;;;;20.41;100.00;99866.37;104772;1277;74143;-73
2022/09/05 09:30:29;;;;;;;6.20;5.60;;;;;;;20.49;100.00;99863.64;104852;1271;61272;-73
2022/09/05 09:33:26;;;;;;;6.00;5.40;;;;;;;20.60;100.00;99866.73;105061;1270;61857;-74
2022/09/05 09:36:35;;;;;;;7.20;5.60;;;;;;;20.70;100.00;99860.73;104976;1270;76305;-73
2022/09/05 09:39:28;;;;;;;5.80;4.70;;;;;;;20.81;100.00;99861.44;105006;1270;70098;-75
2022/09/05 09:42:30;;;;;;;7.30;4.70;;;;;;;20.82;100.00;99855.02;104922;1270;74173;-73
2022/09/05 09:45:21;;;;;;;5.10;4.60;;;;;;;20.87;100.00;99854.02;104988;1270;61304;-74
2022/09/05 09:48:08;;;;;;;8.10;5.30;;;;;;;20.88;100.00;99854.63;105089;1270;61170;-74
2022/09/05 09:51:12;;;;;;;8.50;5.10;;;;;;;20.89;100.00;99855.65;105012;1270;74221;-74
2022/09/05 09:54:06;;;;;;;5.60;5.20;;;;;;;20.82;100.00;99855.06;105004;1270;67463;-75
2022/09/05 09:57:18;;;;;;;7.10;5.00;;;;;;;20.87;100.00;99857.17;105049;1270;75969;-74
2022/09/05 10:00:16;;;;;;;8.90;4.80;;;;;;;20.98;100.00;99851.89;105059;1270;61292;-74
2022/09/05 10:03:07;;;;;;;5.10;4.70;;;;;;;21.13;100.00;99851.92;104926;1270;61345;-73
2022/09/05 10:05:56;;;;;;;4.60;4.30;;;;;;;21.25;100.00;99846.91;104968;1270;76228;-74
2022/09/05 10:09:03;;;;;;;6.70;4.70;;;;;;;21.39;100.00;99849.00;105091;1270;67778;-74
2022/09/05 10:12:25;;;;;;;5.40;4.30;;;;;;;21.44;100.00;99842.05;105019;1270;72692;-72
2022/09/05 10:15:36;;;;;;;5.20;4.50;;;;;;;21.59;100.00;99844.49;104960;1270;61260;-74
2022/09/05 10:18:39;;;;;;;4.60;4.10;;;;;;;21.66;100.00;99840.95;104930;1270;61316;-72
2022/09/05 10:21:30;;;;;;;4.50;4.10;;;;;;;21.73;100.00;99840.25;105071;1270;76217;-73
2022/09/05 10:24:23;;;;;;;6.50;4.70;;;;;;;21.83;100.00;99842.05;104992;1270;68296;-74
2022/09/05 10:27:11;;;;;;;4.00;3.70;;;;;;;21.80;100.00;99841.48;104993;1270;71659;-73
2022/09/05 10:30:09;;;;;;;4.20;3.80;;;;;;;21.84;100.00;99836.45;105038;1270;61272;-73
2022/09/05 10:33:29;;;;;;;5.30;3.90;;;;;;;21.75;100.00;99834.39;105023;1270;61189;-73
2022/09/05 10:36:14;;;;;;;;;;;;;;;21.68;100.00;99833.98;105128;1270;74423;-73
2022/09/05 10:39:18;;;;;;;3.80;3.40;;;;;;;21.72;100.00;99831.10;105085;1270;68649;-73
2022/09/05 10:42:14;;;;;;;4.80;4.30;;;;;;;21.74;100.00;99829.86;105247;1270;71457;-73
2022/09/05 10:45:04;;;;;;;3.80;3.30;;;;;;;21.84;100.00;99822.70;105206;1270;61299;-73
2022/09/05 10:48:21;;;;;;;3.90;3.60;;;;;;;21.84;100.00;99818.30;105238;1269;63566;-73
2022/09/05 10:51:15;;;;;;;4.10;3.50;;;;;;;21.74;100.00;99814.58;104678;1278;76232;-73
2022/09/05 10:54:12;;;;;;;4.60;3.90;;;;;;;21.72;100.00;99815.40;104566;1278;67771;-73
2022/09/05 10:57:11;;;;;;;5.90;4.00;;;;;;;21.80;100.00;99821.76;104445;1278;74273;-73
2022/09/05 11:00:22;;;;;;;3.80;3.50;;;;;;;21.94;100.00;99816.63;104353;1279;61393;-74
2022/09/05 11:03:17;;;;;;;5.10;3.60;;;;;;;22.01;100.00;99814.82;104503;1278;61190;-74
2022/09/05 11:06:08;;;;;;;5.60;3.10;;;;;;;22.04;100.00;99812.65;104483;1279;76106;-73
2022/09/05 11:09:32;;;;;;;4.20;3.80;;;;;;;22.18;100.00;99808.88;104459;1278;70077;-74
2022/09/05 11:12:27;;;;;;;4.50;3.80;;;;;;;22.34;100.00;99804.00;103934;1284;74324;-73
2022/09/05 11:15:30;;;;;;;5.70;3.80;;;;;;;22.37;100.00;99802.25;103934;1284;61338;-75
2022/09/05 11:18:39;;;;;;;4.50;3.40;;;;;;;22.41;100.00;99799.55;103904;1284;61921;-74
2022/09/05 11:21:45;;;;;;;5.00;4.50;;;;;;;22.39;100.00;99793.50;103933;1284;76245;-75
2022/09/05 11:24:32;;;;;;;4.50;4.10;;;;;;;22.49;100.00;99789.08;103973;1284;70149;-73
2022/09/05 11:27:30;;;;;;;5.40;4.10;;;;;;;22.56;100.00;99787.20;103949;1282;74139;-73
2022/09/05 11:30:17;;;;;;;3.50;3.20;;;;;;;22.64;100.00;99793.46;104441;1279;61486;-73
2022/09/05 11:33:47;;;;;;;3.60;3.30;;;;;;;22.51;100.00;99791.04;104358;1279;61211;-73
2022/09/05 11:36:42;;;;;;;4.20;3.80;;;;;;;22.36;100.00;99784.93;103992;1284;73635;-73
2022/09/05 11:39:36;;;;;;;3.80;3.50;;;;;;;22.40;100.00;99788.79;104013;1284;66896;-73
2022/09/05 11:42:38;;;;;;;4.70;3.50;;;;;;;22.42;100.00;99789.30;103937;1284;74245;-74
2022/09/05 11:45:48;;;;;;;3.70;3.30;;;;;;;22.46;100.00;99780.14;104071;1284;61310;-73
2022/09/05 11:48:57;;;;;;;3.80;3.50;;;;;;;22.53;100.00;99782.09;104004;1277;64703;-73
2022/09/05 11:51:57;;;;;;;4.20;3.50;;;;;;;22.62;100.00;99776.90;104572;1276;76258;-73
2022/09/05 11:55:07;;;;;;;5.30;3.50;;;;;;;22.68;100.00;99781.42;104670;1276;70046;-74
2022/09/05 11:58:21;;;;;;;6.10;3.90;;;;;;;22.64;100.00;99777.70;104625;1276;74158;-73
2022/09/05 12:01:53;;;;;;;3.70;3.30;;;;;;;22.64;100.00;99773.39;104384;1276;61422;-73
2022/09/05 12:05:03;;;;;;;5.30;3.60;;;;;;;22.80;100.00;99774.02;104635;1276;61951;-75
2022/09/05 12:08:04;;;;;;;5.40;3.90;;;;;;;22.83;100.00;99773.48;104699;1276;76234;-73
2022/09/05 12:11:20;;;;;;;4.20;3.50;;;;;;;22.84;100.00;99773.23;104641;1276;70232;-74
2022/09/05 12:14:59;;;;;;;5.40;3.50;;;;;;;22.86;100.00;99770.14;104834;1271;74155;-74
2022/09/05 12:17:59;;;;;;;4.10;3.70;;;;;;;22.97;100.00;99770.10;104675;1277;61702;-74
2022/09/05 12:20:55;;;;;;;6.30;3.90;;;;;;;23.04;100.00;99763.52;104809;1277;61154;-74
2022/09/05 12:24:09;;;;;;;4.20;3.80;;;;;;;22.98;100.00;99767.77;104811;1277;76289;-73
2022/09/05 12:27:03;;;;;;;4.10;3.70;;;;;;;22.78;100.00;99763.02;104843;1275;67756;-73
2022/09/05 12:29:54;;;;;;;5.50;3.90;;;;;;;22.65;100.00;99764.36;104817;1277;74194;-74
2022/09/05 12:32:54;;;;;;;4.00;3.60;;;;;;;22.67;100.00;99762.02;104826;1277;61365;-74
2022/09/05 12:36:02;;;;;;;3.90;3.40;;;;;;;22.70;100.00;99757.66;104827;1277;61774;-74
2022/09/05 12:38:46;;;;;;;3.20;2.90;;;;;;;22.82;100.00;99755.35;104821;1277;76847;-74
2022/09/05 12:42:23;;;;;;;7.60;3.60;;;;;;;22.91;100.00;99750.08;104809;1277;67565;-74
2022/09/05 12:45:15;;;;;;;3.40;3.10;;;;;;;23.07;100.00;99752.13;103396;1290;74186;-74
2022/09/05 12:48:09;;;;;;;6.50;3.50;;;;;;;23.25;99.77;99753.16;103400;1290;61566;-74
2022/09/05 12:50:59;;;;;;;4.30;3.10;;;;;;;23.30;100.00;99757.02;103487;1288;61279;-74
2022/09/05 12:53:53;;;;;;;8.40;3.60;;;;;;;23.36;100.00;99751.41;104100;1285;76256;-74
2022/09/05 12:56:54;;;;;;;8.50;4.00;;;;;;;23.49;98.62;99755.11;104081;1284;71063;-73
2022/09/05 12:59:43;;;;;;;3.50;3.20;;;;;;;23.44;96.77;99749.56;103996;1284;74225;-74
2022/09/05 13:02:32;;;;;;;4.50;3.20;;;;;;;23.44;96.58;99745.58;104108;1284;61364;-76
2022/09/05 13:05:25;;;;;;;3.40;3.10;;;;;;;23.41;95.45;99744.63;104077;1284;61922;-73
2022/09/05 13:08:20;;;;;;;5.90;3.50;;;;;;;23.35;93.62;99744.40;103945;1284;76247;-75
2022/09/05 13:11:07;;;;;;;4.10;3.30;;;;;;;23.30;93.43;99738.95;103958;1284;67503;-75
2022/09/05 13:14:01;;;;;;;3.30;3.00;;;;;;;23.28;92.50;99738.81;103949;1284;74260;-75
2022/09/05 13:16:48;;;;;;;5.20;3.10;;;;;;;23.29;91.79;99733.98;103956;1284;61208;-74
2022/09/05 13:19:49;;;;;;;4.30;3.00;;;;;;;23.28;91.02;99733.82;104376;1284;61395;-74
2022/09/05 13:22:37;;;;;;;4.70;3.30;;;;;;;23.27;90.17;99735.69;105247;1270;74017;-74
2022/09/05 13:25:26;;;;;;;4.90;3.20;;;;;;;23.25;90.66;99736.86;105059;1270;70161;-73
2022/09/05 13:28:13;;;;;;;4.10;3.20;;;;;;;23.32;91.95;99735.29;104962;1270;71459;-74
2022/09/05 13:31:06;;;;;;;4.40;3.10;;;;;;;23.39;88.71;99737.29;105063;1270;61327;-73
2022/09/05 13:33:51;;;;;;;6.50;3.50;;;;;;;23.35;88.11;99732.95;105099;1270;61841;-74
2022/09/05 13:36:55;;;;;;;4.80;3.10;;;;;;;23.38;86.69;99732.85;105084;1270;76207;-75
2022/09/05 13:39:49;;;;;;;2.90;2.60;;;;;;;23.24;85.49;99738.32;105070;1270;72036;-74
2022/09/05 13:42:39;;;;;;;3.50;3.20;;;;;;;23.09;86.40;99736.35;105084;1270;74223;-74